Archival Weather

Lamerd

Lamerd, Iran (OISR)

Report from: Saturday, April 1, 2023 12:00 PM UTC
Current time: Tuesday, June 6, 2023 7:17 PM UTC

Current weather
Weather history
Weather forecast

Temperature30.0°C (86.0°F)
Heat index29.1°C (84.4°F)
Dew point12.0°C (53.6°F)
Winds 10 kts (5.1 m/s, 11.5 mph) West-Northwest (300°)
Clouds Sky clear
Altimeter29.82 in.Hg (1010 mB)
Relative humidity33 %
Density altitude2,032 ft. (619 m)
Remarks Ceiling and visibility OK
No significant changes expected in the next two hours
Flight conditions Visual Meteorological Conditions
Raw dataOISR 011200Z 30010KT CAVOK 30/12 Q1009 A2982 NOSIG
An error has occurred. This application may no longer respond until reloaded. Reload 🗙